Time;durP1;ratioP1;P1;durP2;ratioP2;P2;SDS_P1;SDS_P2;PMS_P1;PMS_P2;Temp;Humidity;BMP_temperature;BMP_pressure;BME280_temperature;BME280_humidity;BME280_pressure;Samples;Min_cycle;Max_cycle;Signal;HPM_P1;HPM_P2
2022/09/13 00:02:15;;;;;;;11.27;7.05;;;20.00;99.90;;;;;;5031741;28;20026;-78
2022/09/13 00:04:41;;;;;;;14.23;6.65;;;20.00;99.90;;;;;;5031826;28;20056;-78
2022/09/13 00:07:06;;;;;;;10.85;6.80;;;19.90;99.90;;;;;;5031808;28;20432;-78
2022/09/13 00:09:32;;;;;;;12.38;7.00;;;19.90;99.90;;;;;;5031757;28;20026;-78
2022/09/13 00:11:58;;;;;;;12.00;7.07;;;19.90;99.90;;;;;;5031640;28;20025;-78
2022/09/13 00:14:25;;;;;;;9.73;6.97;;;19.90;99.90;;;;;;5031828;28;20278;-78
2022/09/13 00:16:51;;;;;;;12.13;7.25;;;19.90;99.90;;;;;;5032696;28;20447;-78
2022/09/13 00:19:17;;;;;;;10.40;7.30;;;19.90;99.90;;;;;;5040804;28;20022;-78
2022/09/13 00:21:42;;;;;;;17.42;7.53;;;19.90;99.90;;;;;;5035795;28;20017;-78
2022/09/13 00:24:08;;;;;;;12.25;7.35;;;19.90;99.90;;;;;;5031664;28;20512;-78
2022/09/13 00:26:33;;;;;;;11.80;7.72;;;19.90;99.90;;;;;;5031352;28;20083;-79
2022/09/13 00:28:59;;;;;;;12.07;7.40;;;19.90;99.90;;;;;;5030206;28;20027;-78
2022/09/13 00:31:27;;;;;;;13.27;7.57;;;19.90;99.90;;;;;;5031242;28;20021;-79
2022/09/13 00:33:53;;;;;;;11.60;7.88;;;19.90;99.90;;;;;;5031024;28;20030;-78
2022/09/13 00:36:19;;;;;;;14.77;8.50;;;19.90;99.90;;;;;;5031065;28;20017;-79
2022/09/13 00:38:44;;;;;;;10.15;8.05;;;19.90;99.90;;;;;;5030869;28;20053;-78
2022/09/13 00:41:14;;;;;;;10.65;7.30;;;19.90;99.90;;;;;;5025386;28;20449;-78
2022/09/13 00:44:00;;;;;;;11.63;7.32;;;19.90;99.90;;;;;;5031068;28;20375;-78
2022/09/13 00:46:41;;;;;;;10.32;7.57;;;19.90;99.90;;;;;;5031199;28;20116;-78
2022/09/13 00:49:27;;;;;;;12.00;8.77;;;19.80;99.90;;;;;;5031290;28;20053;-78
2022/09/13 00:52:05;;;;;;;14.02;8.88;;;19.80;99.90;;;;;;5030977;28;20041;-78
2022/09/13 00:54:42;;;;;;;13.75;8.30;;;19.80;99.90;;;;;;5033210;28;20477;-79
2022/09/13 00:57:09;;;;;;;11.73;8.98;;;19.80;99.90;;;;;;5031562;28;20022;-78
2022/09/13 00:59:46;;;;;;;33.92;25.63;;;19.80;99.90;;;;;;5035679;28;20043;-78
2022/09/13 01:02:13;;;;;;;17.23;11.88;;;19.80;99.90;;;;;;5028971;28;20377;-78
2022/09/13 01:04:40;;;;;;;26.60;17.88;;;19.80;99.90;;;;;;5032262;28;20021;-78
2022/09/13 01:07:09;;;;;;;17.63;12.40;;;19.80;99.90;;;;;;5032301;28;20029;-78
2022/09/13 01:09:38;;;;;;;16.10;10.77;;;19.80;99.90;;;;;;5016933;28;20053;-78
2022/09/13 01:12:14;;;;;;;14.82;9.38;;;19.80;99.90;;;;;;5030751;28;20052;-78
2022/09/13 01:14:40;;;;;;;12.95;9.27;;;19.80;99.90;;;;;;5030425;28;20025;-78
2022/09/13 01:17:07;;;;;;;16.27;9.88;;;19.80;99.90;;;;;;5029692;28;20144;-78
2022/09/13 01:19:33;;;;;;;14.02;10.05;;;19.80;99.90;;;;;;5030508;28;20036;-78
2022/09/13 01:22:36;;;;;;;14.40;9.32;;;19.80;99.90;;;;;;5029774;28;20033;-77
2022/09/13 01:25:13;;;;;;;13.75;10.07;;;19.80;99.90;;;;;;5029109;28;20065;-78
2022/09/13 01:28:33;;;;;;;15.73;9.45;;;19.80;99.90;;;;;;5033509;28;20175;-78
2022/09/13 01:31:12;;;;;;;14.32;9.52;;;19.80;99.90;;;;;;4991119;28;20026;-78
2022/09/13 01:34:15;;;;;;;17.60;10.02;;;19.80;99.90;;;;;;4990400;28;20042;-78
2022/09/13 01:36:58;;;;;;;14.90;9.45;;;19.80;99.90;;;;;;4990678;28;20038;-78
2022/09/13 01:39:40;;;;;;;13.50;9.85;;;19.80;99.90;;;;;;5007178;28;20041;-78
2022/09/13 01:42:21;;;;;;;13.55;9.57;;;19.80;99.90;;;;;;4998765;28;20461;-78
2022/09/13 01:45:03;;;;;;;15.82;9.45;;;19.80;99.90;;;;;;5017794;28;20033;-78
2022/09/13 01:48:06;;;;;;;14.52;10.45;;;19.80;99.90;;;;;;4462494;28;21321;-77
2022/09/13 01:50:41;;;;;;;14.90;9.95;;;19.80;99.90;;;;;;5001664;28;20048;-78
2022/09/13 01:53:24;;;;;;;12.38;9.82;;;19.80;99.90;;;;;;5007562;28;20038;-79
2022/09/13 01:56:04;;;;;;;14.93;10.43;;;19.70;99.90;;;;;;5012250;28;20085;-78
2022/09/13 01:58:35;;;;;;;14.48;9.95;;;19.80;99.90;;;;;;5013114;28;20581;-78
2022/09/13 02:01:24;;;;;;;13.32;9.82;;;19.70;99.90;;;;;;5006191;28;20100;-78
2022/09/13 02:04:04;;;;;;;14.13;10.00;;;19.70;99.90;;;;;;5007360;28;20041;-78
2022/09/13 02:06:35;;;;;;;14.93;10.20;;;19.70;99.90;;;;;;5017756;28;20045;-78
2022/09/13 02:09:07;;;;;;;11.05;9.13;;;19.70;99.90;;;;;;5036383;28;20110;-77
2022/09/13 02:11:33;;;;;;;13.55;9.48;;;19.80;99.90;;;;;;5041861;28;20175;-79
2022/09/13 02:14:04;;;;;;;13.65;9.65;;;19.70;99.90;;;;;;5047675;28;20039;-78
2022/09/13 02:16:34;;;;;;;11.43;9.32;;;19.70;99.90;;;;;;5016180;28;20025;-78
2022/09/13 02:19:09;;;;;;;16.17;10.05;;;19.70;99.90;;;;;;5042258;28;20021;-78
2022/09/13 02:21:38;;;;;;;12.90;9.32;;;19.70;99.90;;;;;;5032614;28;20017;-78
2022/09/13 02:24:09;;;;;;;15.93;9.27;;;19.70;99.90;;;;;;5038707;28;20655;-78
2022/09/13 02:26:38;;;;;;;14.23;9.25;;;19.70;99.90;;;;;;5039434;28;20461;-78
2022/09/13 02:29:10;;;;;;;15.45;9.75;;;19.70;99.90;;;;;;5041849;28;20029;-77
2022/09/13 02:31:43;;;;;;;12.05;8.85;;;19.70;99.90;;;;;;5051094;28;20032;-78
2022/09/13 02:34:17;;;;;;;12.90;9.02;;;19.70;99.90;;;;;;5041809;28;20407;-78
2022/09/13 02:36:47;;;;;;;13.32;8.68;;;19.70;99.90;;;;;;5037020;28;20032;-78
2022/09/13 02:39:15;;;;;;;12.75;9.15;;;19.60;99.90;;;;;;5045695;28;20453;-78
2022/09/13 02:41:53;;;;;;;13.00;9.07;;;19.60;99.90;;;;;;5048929;28;20096;-78
2022/09/13 02:44:22;;;;;;;14.27;9.45;;;19.60;99.90;;;;;;5027676;28;20052;-78
2022/09/13 02:47:11;;;;;;;15.48;9.60;;;19.60;99.90;;;;;;5036238;28;20026;-78
2022/09/13 02:49:52;;;;;;;14.18;9.63;;;19.60;99.90;;;;;;5041497;28;20053;-78
2022/09/13 02:52:56;;;;;;;14.18;9.60;;;19.60;99.90;;;;;;5048959;28;20033;-78
2022/09/13 02:55:25;;;;;;;12.35;9.27;;;19.60;99.90;;;;;;5029724;28;20281;-78
2022/09/13 02:58:24;;;;;;;12.88;9.73;;;19.60;99.90;;;;;;5005955;28;20064;-78
2022/09/13 03:00:50;;;;;;;12.88;9.48;;;19.60;99.90;;;;;;5012711;28;20593;-78
2022/09/13 03:03:16;;;;;;;14.95;9.40;;;19.60;99.90;;;;;;5022214;28;20033;-78
2022/09/13 03:05:43;;;;;;;14.63;9.65;;;19.50;99.90;;;;;;5027173;28;20128;-77
2022/09/13 03:08:12;;;;;;;13.95;10.05;;;19.50;99.90;;;;;;5012637;28;20498;-78
2022/09/13 03:11:19;;;;;;;12.73;10.63;;;19.60;99.90;;;;;;5025267;28;20121;-78
2022/09/13 03:14:02;;;;;;;;;;;19.60;99.90;;;;;;4946475;29;20065;-78
2022/09/13 03:16:38;;;;;;;13.35;9.95;;;19.60;99.90;;;;;;4941595;29;19914;-78
2022/09/13 03:19:27;;;;;;;16.55;10.73;;;19.50;99.90;;;;;;4946159;29;20039;-78
2022/09/13 03:22:26;;;;;;;13.35;10.73;;;19.50;99.90;;;;;;4938670;29;20043;-78
2022/09/13 03:25:04;;;;;;;14.63;10.80;;;19.50;99.90;;;;;;4950710;29;20289;-78
2022/09/13 03:27:40;;;;;;;16.15;10.90;;;19.50;99.90;;;;;;4950494;29;20427;-79
2022/09/13 03:30:11;;;;;;;15.02;10.95;;;19.50;99.90;;;;;;4962953;28;20145;-79
2022/09/13 03:33:19;;;;;;;14.25;10.57;;;19.50;99.90;;;;;;4945763;28;20097;-78
2022/09/13 03:36:23;;;;;;;16.02;10.70;;;19.50;99.90;;;;;;4945453;28;20047;-78
2022/09/13 03:39:02;;;;;;;14.40;11.15;;;19.50;99.90;;;;;;4931465;29;20028;-78
2022/09/13 03:41:34;;;;;;;15.45;10.75;;;19.50;99.90;;;;;;4943956;28;20055;-78
2022/09/13 03:44:03;;;;;;;14.70;11.13;;;19.50;99.90;;;;;;4934448;29;20050;-77
2022/09/13 03:46:45;;;;;;;14.90;10.80;;;19.40;99.90;;;;;;4938542;29;20062;-78
2022/09/13 03:49:15;;;;;;;13.90;11.38;;;19.40;99.90;;;;;;4943862;28;20091;-78
2022/09/13 03:51:44;;;;;;;17.92;11.00;;;19.40;99.90;;;;;;5014971;28;20021;-78
2022/09/13 03:54:24;;;;;;;15.23;11.30;;;19.40;99.90;;;;;;5025090;28;20532;-78
2022/09/13 03:57:10;;;;;;;15.15;11.68;;;19.40;99.90;;;;;;5007748;28;20041;-78
2022/09/13 03:59:37;;;;;;;17.70;11.90;;;19.40;99.90;;;;;;5002972;28;20367;-78
2022/09/13 04:02:04;;;;;;;16.52;11.60;;;19.30;99.90;;;;;;5002221;28;20018;-78
2022/09/13 04:04:31;;;;;;;17.40;12.25;;;19.30;99.90;;;;;;5014603;28;20030;-78
2022/09/13 04:07:00;;;;;;;20.77;13.55;;;19.30;99.90;;;;;;5018252;28;20429;-78
2022/09/13 04:09:26;;;;;;;22.40;14.23;;;19.20;99.90;;;;;;5012552;28;20037;-78
2022/09/13 04:11:51;;;;;;;18.63;13.38;;;19.20;99.90;;;;;;5049980;28;20519;-78
2022/09/13 04:14:17;;;;;;;21.48;14.07;;;19.20;99.90;;;;;;5037880;28;20060;-78
2022/09/13 04:16:43;;;;;;;21.15;14.57;;;19.20;99.90;;;;;;5038210;28;20041;-78
2022/09/13 04:19:09;;;;;;;21.27;15.10;;;19.20;99.90;;;;;;5049274;28;20500;-77
2022/09/13 04:21:35;;;;;;;27.67;17.33;;;19.20;99.90;;;;;;5053934;28;20076;-78
2022/09/13 04:24:01;;;;;;;22.88;17.42;;;19.10;99.90;;;;;;5025877;28;20565;-78
2022/09/13 04:26:26;;;;;;;22.65;16.23;;;19.10;99.90;;;;;;5036184;28;20088;-78
2022/09/13 04:28:52;;;;;;;23.25;17.10;;;19.10;99.90;;;;;;5037100;28;20386;-78
2022/09/13 04:31:18;;;;;;;21.65;15.98;;;19.10;99.90;;;;;;5049886;28;20028;-77
2022/09/13 04:33:44;;;;;;;27.10;16.77;;;19.10;99.90;;;;;;5049393;28;20575;-78
2022/09/13 04:36:09;;;;;;;27.33;18.10;;;19.10;99.90;;;;;;5041810;28;20022;-74
2022/09/13 04:38:36;;;;;;;24.13;17.73;;;19.10;99.90;;;;;;5039049;28;20017;-73
2022/09/13 04:41:02;;;;;;;23.45;17.15;;;19.00;99.90;;;;;;5050378;28;20029;-73
2022/09/13 04:43:28;;;;;;;24.00;16.55;;;19.00;99.90;;;;;;5053023;28;20025;-73
2022/09/13 04:45:58;;;;;;;23.02;16.95;;;19.00;99.90;;;;;;5041145;28;20037;-73
2022/09/13 04:48:24;;;;;;;24.92;16.95;;;19.00;99.90;;;;;;5048922;28;20049;-74
2022/09/13 04:50:49;;;;;;;24.15;17.05;;;19.00;99.90;;;;;;5052369;28;20424;-74
2022/09/13 04:53:17;;;;;;;24.13;17.40;;;19.00;99.90;;;;;;5045206;28;20282;-74
2022/09/13 04:55:42;;;;;;;22.98;16.92;;;19.00;99.90;;;;;;5050953;28;20039;-74
2022/09/13 04:58:08;;;;;;;28.13;17.00;;;19.00;99.90;;;;;;5044711;28;20104;-74
2022/09/13 05:00:34;;;;;;;24.00;17.95;;;19.00;99.90;;;;;;5040383;28;20029;-74
2022/09/13 05:03:00;;;;;;;26.98;17.45;;;19.00;99.90;;;;;;5039971;28;20028;-74
2022/09/13 05:05:27;;;;;;;28.10;17.27;;;19.10;99.90;;;;;;5038510;28;20490;-74
2022/09/13 05:07:53;;;;;;;24.83;18.10;;;19.10;99.90;;;;;;5037674;28;20033;-74
2022/09/13 05:10:19;;;;;;;26.33;17.35;;;19.10;99.90;;;;;;5051217;28;20021;-75
2022/09/13 05:12:45;;;;;;;26.85;18.60;;;19.10;99.90;;;;;;5047646;28;20385;-74
2022/09/13 05:15:11;;;;;;;26.88;19.75;;;19.10;99.90;;;;;;5049572;28;20032;-74
2022/09/13 05:17:37;;;;;;;29.83;19.73;;;19.10;99.90;;;;;;5045588;28;20034;-73
2022/09/13 05:20:04;;;;;;;30.30;18.70;;;19.10;99.90;;;;;;5052119;28;20021;-73
2022/09/13 05:22:30;;;;;;;26.88;18.52;;;19.10;99.90;;;;;;5055460;28;20013;-74
2022/09/13 05:24:56;;;;;;;26.95;18.40;;;19.10;99.90;;;;;;5063668;28;20021;-74
2022/09/13 05:27:22;;;;;;;29.13;18.98;;;19.10;99.90;;;;;;5072522;28;20047;-74
2022/09/13 05:29:47;;;;;;;30.00;17.98;;;19.20;99.90;;;;;;5067666;28;20017;-75
2022/09/13 05:32:13;;;;;;;31.27;20.25;;;19.20;99.90;;;;;;5063889;28;20017;-75
2022/09/13 05:34:38;;;;;;;31.30;20.35;;;19.20;99.90;;;;;;5054282;28;20051;-75
2022/09/13 05:37:04;;;;;;;25.80;18.65;;;19.20;99.90;;;;;;5055028;28;20033;-75
2022/09/13 05:39:30;;;;;;;29.73;19.00;;;19.20;99.90;;;;;;5051349;28;20065;-75
2022/09/13 05:41:55;;;;;;;31.30;21.23;;;19.20;99.90;;;;;;5057333;28;20488;-74
2022/09/13 05:44:21;;;;;;;28.13;19.30;;;19.20;99.90;;;;;;5049282;28;20116;-77
2022/09/13 05:46:47;;;;;;;34.00;20.20;;;19.20;99.90;;;;;;5041783;28;20033;-74
2022/09/13 05:49:13;;;;;;;28.80;20.52;;;19.20;99.90;;;;;;5041244;28;20056;-74
2022/09/13 05:51:39;;;;;;;27.63;19.05;;;19.20;99.90;;;;;;5043008;28;20500;-80
2022/09/13 05:54:05;;;;;;;27.52;19.70;;;19.30;99.90;;;;;;5035835;28;20466;-81
2022/09/13 05:56:31;;;;;;;30.40;19.08;;;19.30;99.90;;;;;;5036910;28;20017;-83
2022/09/13 05:58:57;;;;;;;28.70;19.52;;;19.30;99.90;;;;;;5030763;28;20026;-81
2022/09/13 06:01:27;;;;;;;27.67;19.88;;;19.30;99.90;;;;;;5035106;28;20067;-79
2022/09/13 06:03:56;;;;;;;27.42;19.40;;;19.30;99.90;;;;;;5032136;28;20037;-80
2022/09/13 06:06:23;;;;;;;27.90;19.80;;;19.40;99.90;;;;;;5043586;28;20020;-80
2022/09/13 06:08:56;;;;;;;28.00;19.45;;;19.40;99.90;;;;;;5035076;28;20112;-81
2022/09/13 06:11:25;;;;;;;26.05;18.13;;;19.40;99.90;;;;;;5034964;28;20032;-80
2022/09/13 06:13:50;;;;;;;25.48;18.77;;;19.40;99.90;;;;;;5047948;28;20067;-80
2022/09/13 06:16:16;;;;;;;26.85;18.48;;;19.40;99.90;;;;;;5054287;28;20021;-80
2022/09/13 06:18:42;;;;;;;25.83;18.33;;;19.50;99.90;;;;;;5053892;28;20021;-80
2022/09/13 06:21:19;;;;;;;25.15;18.42;;;19.50;99.90;;;;;;5053324;28;20021;-81
2022/09/13 06:23:50;;;;;;;27.52;18.25;;;19.50;99.90;;;;;;5052426;28;20520;-81
2022/09/13 06:26:18;;;;;;;27.27;17.95;;;19.60;99.90;;;;;;5040231;28;20024;-81
2022/09/13 06:28:48;;;;;;;27.60;17.98;;;19.60;99.90;;;;;;5043711;28;20072;-81
2022/09/13 06:31:16;;;;;;;23.60;16.58;;;19.60;99.90;;;;;;5047134;28;20032;-81
2022/09/13 06:33:42;;;;;;;21.52;16.02;;;19.70;99.90;;;;;;5049266;28;20028;-81
2022/09/13 06:36:14;;;;;;;24.15;14.95;;;19.70;99.90;;;;;;5039787;28;20040;-81
2022/09/13 06:38:41;;;;;;;19.95;13.48;;;19.70;99.90;;;;;;5054103;28;20419;-81
2022/09/13 06:41:09;;;;;;;17.42;12.68;;;19.80;99.90;;;;;;5050460;28;20029;-81
2022/09/13 06:43:35;;;;;;;16.73;11.48;;;19.80;99.90;;;;;;5040698;28;20029;-81
2022/09/13 06:46:08;;;;;;;15.40;9.30;;;19.90;99.90;;;;;;5052374;28;20048;-80
2022/09/13 06:48:35;;;;;;;11.70;8.98;;;19.90;99.90;;;;;;5039761;28;20073;-81
2022/09/13 06:51:03;;;;;;;12.52;7.10;;;20.00;99.90;;;;;;5053738;28;20069;-81
2022/09/13 06:53:29;;;;;;;11.82;6.95;;;20.10;99.90;;;;;;5054516;28;20041;-81
2022/09/13 06:56:08;;;;;;;10.75;6.93;;;20.00;99.90;;;;;;5054370;28;20025;-81
2022/09/13 06:58:36;;;;;;;10.88;6.38;;;20.10;99.90;;;;;;5053449;28;20377;-81
2022/09/13 07:01:11;;;;;;;8.68;5.22;;;20.20;99.90;;;;;;5053102;28;20025;-80
2022/09/13 07:03:42;;;;;;;8.40;4.95;;;20.20;99.90;;;;;;5053453;28;20384;-81
2022/09/13 07:06:13;;;;;;;8.88;4.70;;;20.30;99.90;;;;;;5053494;28;20054;-80
2022/09/13 07:08:40;;;;;;;5.07;3.50;;;20.30;99.90;;;;;;5036199;28;20025;-81
2022/09/13 07:11:07;;;;;;;6.40;3.40;;;20.30;99.90;;;;;;5052681;28;20122;-81
2022/09/13 07:13:32;;;;;;;5.43;3.13;;;20.30;99.90;;;;;;5050452;28;20021;-80
2022/09/13 07:16:10;;;;;;;4.97;2.80;;;20.40;99.90;;;;;;5038620;28;20079;-81
2022/09/13 07:18:36;;;;;;;5.15;2.38;;;20.40;99.90;;;;;;5053200;28;20059;-81
2022/09/13 07:21:04;;;;;;;5.60;2.63;;;20.50;99.90;;;;;;5050201;28;20776;-81
2022/09/13 07:23:35;;;;;;;7.97;3.20;;;20.50;99.90;;;;;;5053210;28;20124;-81
2022/09/13 07:26:04;;;;;;;5.75;3.28;;;20.60;99.90;;;;;;5052900;28;20029;-80
2022/09/13 07:28:41;;;;;;;6.60;2.78;;;20.50;99.90;;;;;;5051039;28;20021;-81
2022/09/13 07:31:11;;;;;;;9.02;2.70;;;20.50;99.90;;;;;;5051577;28;20037;-81
2022/09/13 07:33:38;;;;;;;8.65;3.10;;;20.50;99.90;;;;;;5052823;28;20094;-80
2022/09/13 07:36:05;;;;;;;8.90;3.20;;;20.50;99.90;;;;;;5052765;28;20052;-80
2022/09/13 07:38:39;;;;;;;6.82;3.13;;;20.50;99.90;;;;;;5051722;28;20055;-81
2022/09/13 07:41:07;;;;;;;10.57;3.60;;;20.50;99.90;;;;;;5051502;28;20112;-81
2022/09/13 07:43:34;;;;;;;12.27;3.10;;;20.60;99.90;;;;;;5071389;28;20108;-81
2022/09/13 07:46:12;;;;;;;8.50;2.85;;;20.60;99.90;;;;;;5052832;28;20473;-81
2022/09/13 07:48:40;;;;;;;7.97;3.13;;;20.60;99.90;;;;;;5019934;28;20049;-80
2022/09/13 07:51:26;;;;;;;8.52;2.95;;;20.60;99.90;;;;;;5042963;28;20523;-81
2022/09/13 07:53:55;;;;;;;6.97;2.60;;;20.70;99.90;;;;;;5028002;28;20485;-81
2022/09/13 07:56:26;;;;;;;5.55;3.10;;;20.70;99.90;;;;;;5051075;28;20048;-80
2022/09/13 07:58:53;;;;;;;5.97;3.10;;;20.80;99.90;;;;;;5039238;28;20388;-81
2022/09/13 08:01:25;;;;;;;5.57;3.00;;;20.80;99.90;;;;;;5037068;28;20029;-81
2022/09/13 08:03:53;;;;;;;7.50;3.13;;;20.80;99.90;;;;;;5036247;28;20021;-80
2022/09/13 08:06:19;;;;;;;7.07;3.38;;;20.90;99.90;;;;;;5042239;28;20059;-81
2022/09/13 08:08:44;;;;;;;7.18;3.15;;;20.90;99.90;;;;;;5043322;28;20029;-81
2022/09/13 08:11:16;;;;;;;4.00;2.80;;;21.00;99.90;;;;;;5041933;28;20439;-81
2022/09/13 08:13:42;;;;;;;5.93;2.97;;;21.00;99.90;;;;;;5047073;28;20032;-81
2022/09/13 08:16:08;;;;;;;5.55;2.50;;;21.10;99.90;;;;;;5047412;28;20037;-80
2022/09/13 08:18:33;;;;;;;6.15;2.33;;;21.10;99.90;;;;;;5047431;28;20037;-81
2022/09/13 08:21:00;;;;;;;3.63;2.30;;;21.20;99.90;;;;;;5045830;28;20016;-81
2022/09/13 08:23:26;;;;;;;7.57;2.35;;;21.30;99.90;;;;;;5049842;28;20025;-81
2022/09/13 08:25:53;;;;;;;4.25;1.98;;;21.50;99.90;;;;;;5048911;28;20029;-81
2022/09/13 08:28:23;;;;;;;4.25;1.85;;;21.60;99.90;;;;;;5038769;28;20056;-81
2022/09/13 08:30:49;;;;;;;8.40;2.17;;;21.80;99.90;;;;;;5052087;28;20029;-81
2022/09/13 08:33:15;;;;;;;4.43;2.55;;;21.80;99.90;;;;;;5018756;28;20385;-81
2022/09/13 08:35:49;;;;;;;4.80;2.03;;;21.90;99.90;;;;;;5043604;28;20078;-80
2022/09/13 08:38:15;;;;;;;3.83;2.00;;;21.90;99.90;;;;;;5047434;28;20056;-81
2022/09/13 08:40:46;;;;;;;4.60;1.85;;;21.90;99.90;;;;;;5051608;28;20519;-81
2022/09/13 08:43:38;;;;;;;6.32;1.80;;;21.90;99.90;;;;;;5051378;28;20054;-81
2022/09/13 08:46:21;;;;;;;4.22;1.50;;;21.90;99.90;;;;;;5029810;28;20043;-81
2022/09/13 08:48:50;;;;;;;3.80;1.70;;;21.90;99.90;;;;;;5019911;28;20150;-82
2022/09/13 08:51:46;;;;;;;3.35;1.40;;;21.90;99.90;;;;;;5045940;28;20032;-82
2022/09/13 08:54:14;;;;;;;3.35;1.63;;;21.90;99.90;;;;;;5040471;28;20079;-79
2022/09/13 08:56:52;;;;;;;3.38;1.40;;;21.90;99.90;;;;;;5050290;28;20029;-79
2022/09/13 08:59:45;;;;;;;5.53;1.40;;;21.90;99.90;;;;;;5051202;28;20025;-80
2022/09/13 09:02:32;;;;;;;3.13;1.40;;;22.00;99.90;;;;;;5024121;28;20362;-81
2022/09/13 09:05:10;;;;;;;5.50;1.30;;;22.00;99.90;;;;;;5042777;28;20028;-80
2022/09/13 09:07:45;;;;;;;4.60;1.40;;;22.00;99.90;;;;;;5035119;28;20025;-80
2022/09/13 09:10:25;;;;;;;2.80;1.17;;;22.10;99.90;;;;;;5045189;28;20603;-80
2022/09/13 09:13:12;;;;;;;4.07;1.33;;;22.20;99.90;;;;;;5051296;28;20469;-80
2022/09/13 09:15:44;;;;;;;2.15;1.27;;;22.30;99.90;;;;;;5047631;28;20056;-81
2022/09/13 09:18:17;;;;;;;4.43;1.40;;;22.40;99.90;;;;;;5043570;28;20360;-80
2022/09/13 09:20:45;;;;;;;5.05;1.27;;;22.50;99.90;;;;;;5047532;28;20021;-81
2022/09/13 09:23:17;;;;;;;4.20;1.30;;;22.70;99.90;;;;;;5050085;28;20052;-81
2022/09/13 09:25:43;;;;;;;2.60;1.20;;;22.80;99.90;;;;;;5051113;28;20031;-80
2022/09/13 09:28:12;;;;;;;5.40;1.23;;;22.90;99.90;;;;;;5050658;28;20029;-80
2022/09/13 09:31:03;;;;;;;3.40;1.10;;;23.00;99.90;;;;;;5050810;28;20024;-80
2022/09/13 09:33:41;;;;;;;3.05;0.90;;;23.00;99.90;;;;;;5046516;28;20041;-81
2022/09/13 09:36:29;;;;;;;5.45;1.42;;;22.90;99.90;;;;;;5047038;28;20541;-81
2022/09/13 09:38:55;;;;;;;3.28;1.27;;;22.80;99.90;;;;;;5050204;28;20021;-81
2022/09/13 09:41:33;;;;;;;5.43;1.30;;;22.60;99.90;;;;;;5050600;28;20056;-81
2022/09/13 09:44:22;;;;;;;4.97;1.42;;;22.60;99.90;;;;;;5032210;28;20036;-80
2022/09/13 09:47:21;;;;;;;6.25;1.65;;;22.50;99.90;;;;;;5037016;28;20017;-82
2022/09/13 09:50:09;;;;;;;6.45;1.23;;;22.40;99.90;;;;;;5036677;28;20049;-80
2022/09/13 09:52:56;;;;;;;4.05;1.20;;;22.30;99.90;;;;;;5047176;28;20033;-81
2022/09/13 09:55:28;;;;;;;4.45;1.10;;;22.30;99.90;;;;;;5017484;28;20083;-81
2022/09/13 09:57:59;;;;;;;9.77;1.60;;;22.30;99.90;;;;;;5043222;28;20091;-81
2022/09/13 10:00:32;;;;;;;4.45;1.35;;;22.40;99.90;;;;;;5037038;28;20519;-80
2022/09/13 10:03:17;;;;;;;7.63;1.40;;;22.50;99.90;;;;;;5044334;28;20029;-81
2022/09/13 10:05:43;;;;;;;6.13;1.52;;;22.60;99.90;;;;;;5026788;28;20120;-82
2022/09/13 10:08:31;;;;;;;4.30;1.20;;;22.80;99.90;;;;;;5051450;28;20058;-82
2022/09/13 10:10:59;;;;;;;2.15;1.10;;;22.80;99.90;;;;;;5056050;28;20119;-81
2022/09/13 10:13:25;;;;;;;7.38;1.50;;;22.90;99.90;;;;;;5049189;28;20187;-81
2022/09/13 10:16:02;;;;;;;6.20;1.38;;;22.90;99.90;;;;;;5046872;28;20119;-81
2022/09/13 10:18:34;;;;;;;5.95;1.20;;;22.90;99.90;;;;;;5050438;28;20029;-81
2022/09/13 10:21:16;;;;;;;4.40;1.30;;;23.00;99.90;;;;;;5050870;28;20078;-82
2022/09/13 10:23:41;;;;;;;3.50;1.33;;;23.10;99.90;;;;;;5050083;28;20029;-81
2022/09/13 10:26:22;;;;;;;7.13;1.50;;;23.20;99.90;;;;;;5049489;28;20473;-82
2022/09/13 10:28:50;;;;;;;4.00;1.20;;;23.30;99.90;;;;;;5039070;28;20034;-82
2022/09/13 10:31:18;;;;;;;3.58;1.27;;;23.30;99.90;;;;;;5043968;28;20156;-82
2022/09/13 10:33:50;;;;;;;4.68;1.17;;;23.50;99.90;;;;;;5028850;28;20441;-81
2022/09/13 10:36:23;;;;;;;3.67;1.10;;;23.60;99.90;;;;;;5029787;28;20073;-82
2022/09/13 10:39:07;;;;;;;6.03;1.23;;;23.70;99.90;;;;;;5029846;28;20101;-81
2022/09/13 10:41:38;;;;;;;4.50;1.30;;;23.80;99.90;;;;;;5029918;28;20384;-82
2022/09/13 10:44:20;;;;;;;3.95;1.30;;;23.80;99.90;;;;;;5031182;28;20022;-79
2022/09/13 10:46:48;;;;;;;6.88;1.58;;;23.80;99.90;;;;;;5030194;28;20067;-78
2022/09/13 10:49:33;;;;;;;4.07;1.23;;;23.80;99.90;;;;;;5040395;28;20055;-82
2022/09/13 10:51:59;;;;;;;6.35;1.60;;;23.90;99.90;;;;;;5033597;28;20028;-79
2022/09/13 10:54:25;;;;;;;3.38;1.30;;;24.00;99.90;;;;;;5034545;28;20041;-79
2022/09/13 10:56:50;;;;;;;3.97;1.30;;;24.10;99.90;;;;;;5033261;28;20095;-80
2022/09/13 10:59:29;;;;;;;4.80;1.35;;;24.20;99.90;;;;;;5031772;28;20025;-81
2022/09/13 11:02:32;;;;;;;6.78;1.38;;;24.20;99.90;;;;;;5033365;28;20025;-81
2022/09/13 11:05:19;;;;;;;3.83;1.30;;;24.20;99.90;;;;;;5032964;28;20034;-81
2022/09/13 11:07:47;;;;;;;5.75;1.40;;;24.20;99.90;;;;;;5033433;28;20029;-80
2022/09/13 11:10:26;;;;;;;4.88;1.20;;;24.20;99.90;;;;;;5045949;28;20382;-81
2022/09/13 11:12:55;;;;;;;6.05;1.30;;;24.30;99.90;;;;;;5040008;28;20029;-81
2022/09/13 11:16:02;;;;;;;5.15;1.27;;;24.30;99.90;;;;;;5047974;28;20386;-81
2022/09/13 11:19:03;;;;;;;5.40;1.30;;;24.30;99.90;;;;;;5012277;28;20054;-81
2022/09/13 11:21:41;;;;;;;2.25;1.20;;;24.20;99.90;;;;;;5024568;28;20580;-81
2022/09/13 11:24:16;;;;;;;3.38;1.10;;;24.10;99.90;;;;;;5048830;28;20018;-81
2022/09/13 11:26:47;;;;;;;7.78;1.10;;;24.10;99.90;;;;;;5044452;28;20028;-81
2022/09/13 11:29:19;;;;;;;4.25;1.00;;;24.20;99.90;;;;;;5053185;28;20481;-81
2022/09/13 11:32:04;;;;;;;4.25;1.10;;;24.20;99.90;;;;;;5040622;28;20037;-80
2022/09/13 11:34:53;;;;;;;3.55;0.98;;;24.30;99.90;;;;;;5035784;28;20041;-81
2022/09/13 11:37:53;;;;;;;4.50;1.00;;;24.40;99.90;;;;;;5046545;28;20429;-82
2022/09/13 11:40:31;;;;;;;3.55;1.23;;;24.40;99.90;;;;;;5025554;28;20116;-81
2022/09/13 11:43:40;;;;;;;3.33;0.90;;;24.30;99.90;;;;;;5052813;28;20025;-80
2022/09/13 11:46:18;;;;;;;2.90;0.95;;;24.40;99.90;;;;;;5014101;28;20026;-82
2022/09/13 11:48:55;;;;;;;5.40;1.10;;;24.50;99.90;;;;;;5015411;28;20137;-81
2022/09/13 11:51:35;;;;;;;2.80;0.90;;;24.50;99.90;;;;;;5017142;28;20046;-82
2022/09/13 11:54:26;;;;;;;4.60;1.00;;;24.60;99.90;;;;;;5014757;28;20103;-81
2022/09/13 11:56:57;;;;;;;5.65;0.80;;;24.60;99.90;;;;;;5025709;28;20128;-82
2022/09/13 11:59:28;;;;;;;4.10;0.90;;;24.70;99.90;;;;;;5004987;28;20058;-81
2022/09/13 12:02:02;;;;;;;2.90;0.93;;;24.60;99.90;;;;;;5012863;28;20061;-81
2022/09/13 12:04:33;;;;;;;3.45;1.00;;;24.70;99.90;;;;;;5013720;28;20022;-81
2022/09/13 12:07:03;;;;;;;4.68;1.20;;;24.70;99.90;;;;;;5014131;28;20513;-82
2022/09/13 12:09:37;;;;;;;3.88;1.00;;;24.60;99.90;;;;;;5000452;28;20026;-82
2022/09/13 12:12:10;;;;;;;2.83;0.90;;;24.70;99.90;;;;;;5013745;28;20033;-80
2022/09/13 12:14:44;;;;;;;3.80;0.80;;;24.90;99.90;;;;;;5020170;28;20410;-81
2022/09/13 12:17:34;;;;;;;4.18;0.90;;;25.10;99.90;;;;;;5013654;28;20037;-81
2022/09/13 12:20:02;;;;;;;2.92;0.70;;;25.20;99.20;;;;;;5004091;28;20091;-76
2022/09/13 12:22:32;;;;;;;3.70;0.93;;;25.10;99.20;;;;;;4996457;28;20034;-77
2022/09/13 12:25:04;;;;;;;3.53;0.70;;;25.00;99.20;;;;;;5008364;28;20021;-80
2022/09/13 12:27:47;;;;;;;4.20;0.75;;;24.90;98.70;;;;;;4997138;28;20562;-80
2022/09/13 12:30:24;;;;;;;2.80;0.93;;;24.80;99.10;;;;;;5001307;28;20031;-80
2022/09/13 12:32:53;;;;;;;2.80;0.80;;;24.80;98.30;;;;;;5000960;28;20045;-76
2022/09/13 12:35:23;;;;;;;3.38;0.95;;;24.70;98.40;;;;;;4998261;28;20467;-74
2022/09/13 12:38:07;;;;;;;4.22;0.90;;;24.70;98.40;;;;;;4985898;28;20038;-73
2022/09/13 12:41:00;;;;;;;4.90;0.93;;;24.70;97.70;;;;;;5000295;28;20028;-73
2022/09/13 12:43:57;;;;;;;3.10;0.82;;;24.70;98.20;;;;;;4999718;28;20053;-73
2022/09/13 12:46:59;;;;;;;3.70;0.90;;;24.80;97.90;;;;;;4994471;28;20037;-73
2022/09/13 12:49:42;;;;;;;3.40;0.90;;;24.70;97.00;;;;;;5026569;28;20397;-73
2022/09/13 12:52:20;;;;;;;4.55;0.90;;;24.60;97.20;;;;;;5048792;28;20021;-73
2022/09/13 12:55:16;;;;;;;4.25;0.80;;;24.70;97.60;;;;;;5042657;28;20041;-73
2022/09/13 12:57:50;;;;;;;3.70;0.60;;;24.60;95.90;;;;;;5047302;28;20078;-73
2022/09/13 13:00:27;;;;;;;3.25;0.70;;;24.60;96.60;;;;;;5045463;28;20032;-73
2022/09/13 13:03:10;;;;;;;3.00;0.68;;;24.80;96.60;;;;;;5042222;28;20025;-73
2022/09/13 13:06:06;;;;;;;2.83;0.70;;;24.80;95.90;;;;;;5044834;28;20116;-73
2022/09/13 13:08:33;;;;;;;3.72;0.80;;;24.70;95.50;;;;;;5052483;28;20072;-72
2022/09/13 13:11:02;;;;;;;6.25;0.85;;;24.70;95.20;;;;;;5035660;28;20021;-72
2022/09/13 13:13:33;;;;;;;2.03;0.60;;;24.80;95.50;;;;;;5042892;28;20064;-72